Airfield :
LOGIN :

Register | Disclaimer

   EN    FR    IT 

 










Legend :    VFR   Marginal VFR   IFR   Intensive IFR   Very Intensive IFR
Visi :
Ceiling :
>= 8 km
>= 3000ft
5 to 8 km
1000 to 3000 ft
1500m to 5 km
500 to 1000 ft
800 to 1500m
200 to 500 ft
< 800m
< 200 ft
Symbols :   Thunderstorms  Fog  Heavy snow  Heavy precipitations  Wind > 20 kt
SIGMETs :     Misc.  Thunderstorms  Icing  Turbulence  Mountain Waves  Volcanic Ashes






- Airport Elevation : 13 ft
- IATA code : OST


EBOS - Oostend bruges Int.

CURRENT METAR :
  • 080620Z 23005KT 200V270 7000 -RADZ SCT003 BKN004 14/13 Q1015 TEMPO 3000 RADZ

EXPIRED METARs :
  • 080550Z 21007KT 7000 -RADZ SCT003 BKN004 14/13 Q1015 TEMPO 3000 RADZ
  • 080520Z 20007KT 4000 RADZ BR SCT003 BKN004 14/13 Q1014 TEMPO 3000 RADZ RA
  • 080450Z 21007KT 3500 -RADZ BR SCT003 BKN004 14/13 Q1015 TEMPO 4000 MODRADZ
  • 080420Z 22006KT 6000 -RADZ SCT003 BKN005 14/13 Q1015 TEMPO 4000 MODRADZ SCT006 BKN012
  • 080350Z 21008KT 4000 RADZ SCT004 BKN006 14/13 Q1015 BECMG6000 NSW SCT006 BKN012

TAF TAF EBOS
Valid from the 08 at 06:00 until the 09 at 12:00 UTC


080520Z 0806/0912 25010KT 6000 SCT007 BKN011
TEMPO 0806/0906 3000 RA RADZ BKN004
PROB40
TEMPO 0906/0912 24016G30KT 4000 RA RADZ BKN006



MET'MAP, your aeronautical weather chart ! - Copyright ORBIFLY December 2007 - Disclaimer

ORBIFLY MET'MAP TEAM :

Programming & Development : Alexandra Zaïnal
Concept & original design : Baudouin d'Aumeries
Assistance for programming : Marc-Olivier Méhu
Technical & hardware support : Manuel Goepfert

Contact : metmap@orbifly.com




SOURCES & CREDITS :

   NOAA